createdAt,value
2022-08-07T00:00:39.773Z,99.90
2022-08-07T00:03:09.239Z,99.90
2022-08-07T00:05:37.982Z,99.90
2022-08-07T00:08:07.802Z,99.90
2022-08-07T00:10:47.981Z,99.90
2022-08-07T00:13:25.819Z,99.90
2022-08-07T00:15:56.553Z,99.90
2022-08-07T00:18:28.058Z,99.90
2022-08-07T00:21:02.093Z,99.90
2022-08-07T00:23:33.025Z,99.90
2022-08-07T00:26:12.923Z,99.90
2022-08-07T00:28:56.682Z,99.90
2022-08-07T00:31:37.413Z,99.90
2022-08-07T00:34:09.676Z,99.90
2022-08-07T00:36:38.586Z,99.90
2022-08-07T00:39:12.780Z,99.90
2022-08-07T00:41:53.633Z,99.90
2022-08-07T00:44:29.757Z,99.90
2022-08-07T00:46:59.527Z,99.90
2022-08-07T00:50:20.458Z,99.90
2022-08-07T00:52:17.596Z,99.90
2022-08-07T00:54:53.556Z,99.90
2022-08-07T00:57:23.078Z,99.90
2022-08-07T00:59:54.415Z,99.90
2022-08-07T01:02:28.569Z,99.90
2022-08-07T01:04:58.715Z,99.90
2022-08-07T01:07:29.517Z,99.90
2022-08-07T01:10:05.754Z,99.90
2022-08-07T01:12:39.737Z,99.90
2022-08-07T01:15:22.449Z,99.90
2022-08-07T01:18:06.552Z,99.90
2022-08-07T01:20:45.996Z,99.90
2022-08-07T01:23:38.705Z,99.90
2022-08-07T01:26:06.973Z,99.90
2022-08-07T01:28:40.627Z,99.90
2022-08-07T01:31:15.459Z,99.90
2022-08-07T01:33:55.779Z,99.90
2022-08-07T01:36:33.387Z,99.90
2022-08-07T01:39:09.975Z,99.90
2022-08-07T01:41:40.760Z,99.90
2022-08-07T01:44:27.627Z,99.90
2022-08-07T01:46:56.324Z,99.90
2022-08-07T01:49:24.434Z,99.90
2022-08-07T01:52:03.951Z,99.90
2022-08-07T01:54:37.744Z,99.90
2022-08-07T01:57:08.974Z,99.90
2022-08-07T01:59:54.977Z,99.90
2022-08-07T02:03:12.247Z,99.90
2022-08-07T02:05:47.669Z,99.90
2022-08-07T02:08:13.861Z,99.90
2022-08-07T02:10:44.715Z,99.90
2022-08-07T02:13:46.944Z,99.90
2022-08-07T02:16:17.968Z,99.90
2022-08-07T02:18:51.186Z,99.90
2022-08-07T02:21:20.873Z,99.90
2022-08-07T02:23:49.697Z,99.90
2022-08-07T02:26:33.943Z,99.90
2022-08-07T02:29:05.890Z,99.90
2022-08-07T02:31:42.323Z,99.90
2022-08-07T02:34:17.241Z,99.90
2022-08-07T02:36:47.026Z,99.90
2022-08-07T02:39:43.702Z,99.90
2022-08-07T02:42:10.100Z,99.90
2022-08-07T02:44:46.482Z,99.90
2022-08-07T02:47:19.833Z,99.90
2022-08-07T02:49:58.519Z,99.90
2022-08-07T02:52:33.741Z,99.90
2022-08-07T02:55:27.376Z,99.90
2022-08-07T02:58:00.089Z,99.90
2022-08-07T03:00:30.551Z,99.90
2022-08-07T03:02:59.799Z,99.90
2022-08-07T03:05:37.819Z,99.90
2022-08-07T03:08:10.295Z,99.90
2022-08-07T03:10:41.049Z,99.90
2022-08-07T03:13:19.719Z,99.90
2022-08-07T03:15:58.453Z,99.90
2022-08-07T03:18:34.705Z,99.90
2022-08-07T03:21:08.428Z,99.90
2022-08-07T03:24:19.375Z,99.90
2022-08-07T03:26:33.190Z,99.90
2022-08-07T03:29:05.178Z,99.90
2022-08-07T03:31:43.119Z,99.90
2022-08-07T03:34:18.297Z,99.90
2022-08-07T03:36:51.000Z,99.90
2022-08-07T03:39:58.882Z,99.90
2022-08-07T03:42:08.904Z,99.90
2022-08-07T03:44:39.909Z,99.90
2022-08-07T03:47:13.165Z,99.90
2022-08-07T03:49:47.667Z,99.90
2022-08-07T03:52:26.360Z,99.90
2022-08-07T03:54:57.377Z,99.90
2022-08-07T03:58:34.691Z,99.90
2022-08-07T04:00:30.785Z,99.90
2022-08-07T04:03:03.962Z,99.90
2022-08-07T04:05:40.391Z,99.90
2022-08-07T04:08:12.646Z,99.90
2022-08-07T04:10:54.375Z,99.90
2022-08-07T04:14:09.450Z,99.90
2022-08-07T04:16:31.107Z,99.90
2022-08-07T04:19:03.901Z,99.90
2022-08-07T04:21:59.354Z,99.90
2022-08-07T04:24:34.283Z,99.90
2022-08-07T04:27:15.280Z,99.90
2022-08-07T04:30:01.824Z,99.90
2022-08-07T04:32:34.593Z,99.90
2022-08-07T04:35:05.338Z,99.90
2022-08-07T04:37:52.783Z,99.90
2022-08-07T04:40:29.614Z,99.90
2022-08-07T04:43:01.361Z,99.90
2022-08-07T04:45:57.917Z,99.90
2022-08-07T04:48:39.217Z,99.90
2022-08-07T04:51:19.324Z,99.90
2022-08-07T04:54:05.646Z,99.90
2022-08-07T04:58:15.551Z,99.90
2022-08-07T05:00:13.130Z,99.90
2022-08-07T05:02:30.488Z,99.90
2022-08-07T05:05:11.568Z,99.90
2022-08-07T05:07:59.472Z,99.90
2022-08-07T05:10:32.651Z,99.90
2022-08-07T05:14:44.763Z,99.90
2022-08-07T05:15:54.649Z,99.90
2022-08-07T05:18:26.610Z,99.90
2022-08-07T05:21:03.825Z,99.90
2022-08-07T05:23:37.195Z,99.90
2022-08-07T05:26:18.801Z,99.90
2022-08-07T05:28:55.693Z,99.90
2022-08-07T05:31:35.347Z,99.90
2022-08-07T05:34:11.086Z,99.90
2022-08-07T05:36:43.978Z,99.90
2022-08-07T05:40:05.753Z,99.90
2022-08-07T05:42:12.328Z,99.90
2022-08-07T05:44:52.997Z,99.90
2022-08-07T05:47:38.608Z,99.90
2022-08-07T05:50:19.774Z,99.90
2022-08-07T05:52:50.041Z,99.90
2022-08-07T05:55:18.228Z,99.90
2022-08-07T05:57:48.638Z,99.90
2022-08-07T06:00:19.774Z,99.90
2022-08-07T06:02:51.594Z,99.90
2022-08-07T06:05:28.076Z,99.90
2022-08-07T06:08:14.647Z,99.90
2022-08-07T06:10:51.357Z,99.90
2022-08-07T06:14:10.461Z,99.90
2022-08-07T06:16:13.412Z,99.90
2022-08-07T06:18:42.973Z,99.90
2022-08-07T06:22:15.556Z,99.90
2022-08-07T06:24:37.989Z,99.90
2022-08-07T06:26:50.155Z,99.90
2022-08-07T06:29:19.028Z,99.90
2022-08-07T06:31:50.035Z,99.90
2022-08-07T06:34:20.459Z,99.90
2022-08-07T06:36:52.007Z,99.90
2022-08-07T06:40:13.167Z,99.90
2022-08-07T06:42:16.612Z,99.90
2022-08-07T06:44:50.888Z,99.90
2022-08-07T06:47:19.633Z,99.90
2022-08-07T06:49:52.135Z,99.90
2022-08-07T06:52:35.586Z,99.90
2022-08-07T06:55:32.411Z,99.90
2022-08-07T06:58:02.321Z,99.90
2022-08-07T07:00:36.636Z,99.90
2022-08-07T07:03:08.793Z,99.90
2022-08-07T07:06:04.187Z,99.90
2022-08-07T07:08:31.038Z,99.90
2022-08-07T07:11:14.444Z,99.90
2022-08-07T07:13:58.091Z,99.90
2022-08-07T07:16:45.231Z,99.90
2022-08-07T07:19:54.600Z,99.90
2022-08-07T07:22:36.930Z,99.90
2022-08-07T07:26:31.206Z,99.90
2022-08-07T07:28:02.473Z,99.90
2022-08-07T07:30:38.470Z,99.90
2022-08-07T07:33:11.536Z,99.90
2022-08-07T07:35:54.513Z,99.90
2022-08-07T07:38:34.992Z,99.90
2022-08-07T07:41:08.739Z,99.90
2022-08-07T07:43:47.990Z,99.90
2022-08-07T07:46:50.482Z,99.90
2022-08-07T07:50:34.011Z,99.90
2022-08-07T07:52:13.258Z,99.90
2022-08-07T07:54:51.031Z,99.90
2022-08-07T07:57:51.862Z,99.90
2022-08-07T08:00:28.826Z,99.90
2022-08-07T08:03:05.216Z,99.90
2022-08-07T08:05:50.862Z,99.90
2022-08-07T08:08:35.555Z,99.80
2022-08-07T08:11:08.577Z,99.70
2022-08-07T08:13:54.905Z,99.50
2022-08-07T08:16:35.196Z,99.00
2022-08-07T08:19:09.922Z,98.90
2022-08-07T08:22:12.658Z,97.80
2022-08-07T08:25:18.308Z,97.70
2022-08-07T08:27:56.656Z,98.00
2022-08-07T08:30:32.196Z,98.40
2022-08-07T08:33:15.097Z,98.50
2022-08-07T08:35:49.699Z,98.20
2022-08-07T08:38:20.903Z,98.00
2022-08-07T08:40:59.083Z,98.10
2022-08-07T08:43:42.325Z,97.90
2022-08-07T08:46:16.009Z,96.70
2022-08-07T08:48:54.277Z,96.60
2022-08-07T08:52:01.141Z,95.90
2022-08-07T08:54:24.150Z,96.50
2022-08-07T08:56:55.111Z,96.60
2022-08-07T08:59:42.058Z,96.40
2022-08-07T09:02:36.524Z,95.70
2022-08-07T09:05:36.729Z,95.80
2022-08-07T09:08:28.218Z,94.90
2022-08-07T09:11:08.295Z,95.00
2022-08-07T09:13:42.293Z,95.00
2022-08-07T09:16:22.310Z,94.60
2022-08-07T09:19:51.289Z,94.70
2022-08-07T09:24:28.740Z,94.60
2022-08-07T09:25:17.294Z,94.20
2022-08-07T09:28:01.250Z,94.50
2022-08-07T09:30:38.431Z,94.60
2022-08-07T09:33:24.315Z,94.50
2022-08-07T09:36:17.860Z,94.30
2022-08-07T09:38:55.138Z,94.10
2022-08-07T09:41:43.331Z,94.10
2022-08-07T09:44:52.062Z,93.80
2022-08-07T09:47:55.997Z,93.80
2022-08-07T09:50:26.692Z,93.50
2022-08-07T09:53:02.548Z,93.50
2022-08-07T09:56:03.933Z,93.30
2022-08-07T09:59:07.569Z,93.20
2022-08-07T10:01:54.557Z,93.40
2022-08-07T10:04:38.328Z,93.10
2022-08-07T10:07:52.861Z,92.80
2022-08-07T10:10:30.028Z,93.00
2022-08-07T10:13:55.588Z,92.90
2022-08-07T10:16:22.892Z,92.60
2022-08-07T10:19:18.636Z,92.40
2022-08-07T10:22:15.037Z,92.10
2022-08-07T10:25:08.175Z,91.70
2022-08-07T10:27:51.189Z,91.80
2022-08-07T10:30:29.021Z,91.70
2022-08-07T10:34:05.625Z,91.90
2022-08-07T10:36:31.356Z,91.90
2022-08-07T10:39:13.305Z,91.40
2022-08-07T10:41:53.254Z,91.70
2022-08-07T10:44:38.363Z,92.20
2022-08-07T10:47:27.009Z,91.60
2022-08-07T10:50:15.361Z,91.60
2022-08-07T10:52:55.062Z,91.70
2022-08-07T10:55:37.796Z,91.00
2022-08-07T10:58:32.019Z,90.70
2022-08-07T11:01:35.138Z,91.00
2022-08-07T11:04:32.055Z,90.50
2022-08-07T11:07:15.172Z,90.80
2022-08-07T11:10:07.828Z,90.70
2022-08-07T11:12:45.870Z,90.80
2022-08-07T11:15:31.446Z,90.40
2022-08-07T11:18:17.674Z,90.10
2022-08-07T11:20:57.517Z,90.00
2022-08-07T11:23:45.422Z,90.30
2022-08-07T11:26:22.067Z,90.40
2022-08-07T11:28:57.766Z,90.50
2022-08-07T11:31:35.581Z,90.60
2022-08-07T11:34:12.956Z,90.70
2022-08-07T11:37:00.850Z,90.70
2022-08-07T11:40:00.609Z,90.90
2022-08-07T11:42:42.156Z,90.90
2022-08-07T11:45:20.486Z,91.10
2022-08-07T11:48:29.877Z,91.40
2022-08-07T11:51:40.641Z,91.70
2022-08-07T11:54:37.371Z,91.60
2022-08-07T11:57:18.835Z,91.70
2022-08-07T12:00:11.298Z,91.90
2022-08-07T12:03:45.083Z,92.20
2022-08-07T12:06:37.013Z,92.20
2022-08-07T12:09:16.380Z,92.10
2022-08-07T12:12:09.027Z,92.30
2022-08-07T12:14:55.360Z,92.20
2022-08-07T12:17:33.874Z,92.40
2022-08-07T12:20:12.898Z,92.40
2022-08-07T12:22:59.864Z,92.40
2022-08-07T12:26:06.105Z,92.20
2022-08-07T12:28:53.931Z,92.00
2022-08-07T12:31:52.699Z,92.00
2022-08-07T12:34:20.913Z,91.70
2022-08-07T12:36:56.100Z,91.70
2022-08-07T12:39:43.870Z,91.80
2022-08-07T12:42:27.172Z,91.70
2022-08-07T12:44:59.413Z,91.90
2022-08-07T12:47:37.531Z,92.10
2022-08-07T12:50:38.183Z,92.10
2022-08-07T12:53:18.192Z,92.30
2022-08-07T12:56:03.414Z,92.30
2022-08-07T12:58:39.472Z,92.30
2022-08-07T13:01:18.425Z,92.10
2022-08-07T13:04:04.770Z,92.20
2022-08-07T13:08:13.824Z,92.20
2022-08-07T13:10:39.655Z,92.20
2022-08-07T13:13:57.374Z,92.20
2022-08-07T13:16:32.297Z,92.30
2022-08-07T13:19:21.939Z,92.60
2022-08-07T13:22:12.411Z,92.30
2022-08-07T13:25:02.692Z,92.20
2022-08-07T13:28:10.768Z,92.20
2022-08-07T13:30:40.056Z,92.40
2022-08-07T13:34:30.355Z,92.60
2022-08-07T13:36:18.060Z,93.10
2022-08-07T13:38:54.471Z,93.30
2022-08-07T13:41:30.243Z,93.30
2022-08-07T13:44:02.804Z,93.40
2022-08-07T13:46:49.224Z,93.40
2022-08-07T13:50:35.815Z,93.60
2022-08-07T13:52:26.546Z,93.70
2022-08-07T13:55:00.597Z,93.80
2022-08-07T13:57:38.087Z,93.70
2022-08-07T14:00:26.385Z,93.90
2022-08-07T14:02:59.098Z,93.90
2022-08-07T14:05:37.407Z,94.00
2022-08-07T14:08:09.180Z,94.00
2022-08-07T14:10:42.274Z,94.10
2022-08-07T14:13:17.916Z,94.10
2022-08-07T14:15:54.326Z,94.20
2022-08-07T14:18:33.236Z,94.30
2022-08-07T14:21:08.518Z,94.20
2022-08-07T14:24:00.045Z,94.20
2022-08-07T14:26:37.455Z,94.40
2022-08-07T14:30:07.509Z,94.40
2022-08-07T14:32:02.677Z,94.50
2022-08-07T14:34:45.958Z,94.50
2022-08-07T14:37:17.270Z,94.70
2022-08-07T14:40:18.045Z,94.70
2022-08-07T14:43:55.447Z,94.80
2022-08-07T14:48:27.337Z,94.70
2022-08-07T14:51:00.116Z,94.60
2022-08-07T14:54:09.847Z,94.60
2022-08-07T15:00:03.032Z,94.80
2022-08-07T15:02:31.805Z,94.90
2022-08-07T15:05:02.180Z,95.00
2022-08-07T15:07:50.961Z,95.20
2022-08-07T15:10:26.409Z,95.20
2022-08-07T15:12:58.202Z,95.40
2022-08-07T15:15:38.566Z,95.40
2022-08-07T15:18:14.050Z,95.50
2022-08-07T15:21:04.018Z,95.50
2022-08-07T15:25:15.512Z,95.60
2022-08-07T15:26:37.472Z,95.60
2022-08-07T15:30:06.817Z,95.60
2022-08-07T15:34:57.157Z,95.90
2022-08-07T15:49:12.917Z,96.30
2022-08-07T15:54:34.200Z,96.40
2022-08-07T15:57:05.745Z,96.50
2022-08-07T15:59:39.092Z,96.60
2022-08-07T16:02:09.335Z,96.60
2022-08-07T16:04:44.058Z,96.80
2022-08-07T16:07:32.040Z,97.10
2022-08-07T16:10:14.842Z,97.00
2022-08-07T16:13:05.374Z,97.00
2022-08-07T16:15:58.202Z,97.10
2022-08-07T16:18:50.038Z,97.10
2022-08-07T16:21:44.037Z,97.20
2022-08-07T16:24:34.754Z,97.10
2022-08-07T16:27:18.438Z,97.40
2022-08-07T16:30:11.187Z,97.80
2022-08-07T16:34:02.827Z,98.10
2022-08-07T16:36:18.271Z,98.20
2022-08-07T16:39:05.045Z,98.40
2022-08-07T16:42:02.790Z,98.60
2022-08-07T16:45:15.135Z,98.90
2022-08-07T16:48:28.692Z,99.10
2022-08-07T16:51:20.523Z,99.30
2022-08-07T16:54:32.959Z,99.20
2022-08-07T16:57:15.801Z,99.20
2022-08-07T17:00:08.460Z,99.40
2022-08-07T17:03:17.199Z,99.60
2022-08-07T17:06:19.758Z,99.60
2022-08-07T17:09:09.390Z,99.90
2022-08-07T17:12:03.980Z,99.90
2022-08-07T17:14:44.023Z,99.90
2022-08-07T17:17:37.001Z,99.90
2022-08-07T17:20:29.610Z,99.90
2022-08-07T17:23:08.618Z,99.90
2022-08-07T17:25:54.551Z,99.90
2022-08-07T17:28:35.526Z,99.90
2022-08-07T17:31:16.703Z,99.90
2022-08-07T17:34:15.429Z,99.90
2022-08-07T17:36:58.325Z,99.90
2022-08-07T17:39:53.188Z,99.90
2022-08-07T17:42:58.154Z,99.90
2022-08-07T17:45:35.290Z,99.90
2022-08-07T17:48:10.329Z,99.90
2022-08-07T17:50:55.568Z,99.90
2022-08-07T17:54:00.967Z,99.90
2022-08-07T17:56:29.047Z,99.90
2022-08-07T17:59:11.156Z,99.90
2022-08-07T18:01:51.238Z,99.90
2022-08-07T18:04:35.991Z,99.90
2022-08-07T18:07:37.769Z,99.90
2022-08-07T18:10:29.215Z,99.90
2022-08-07T18:13:20.621Z,99.90
2022-08-07T18:16:04.700Z,99.90
2022-08-07T18:21:02.333Z,99.90
2022-08-07T18:21:51.619Z,99.90
2022-08-07T18:24:34.675Z,99.90
2022-08-07T18:27:38.740Z,99.90
2022-08-07T18:30:31.280Z,99.90
2022-08-07T18:33:38.960Z,99.90
2022-08-07T18:36:33.570Z,99.90
2022-08-07T18:40:07.289Z,99.90
2022-08-07T18:42:13.164Z,99.90
2022-08-07T18:48:01.373Z,99.90
2022-08-07T18:50:54.343Z,99.90
2022-08-07T18:53:39.472Z,99.90
2022-08-07T18:56:15.529Z,99.90
2022-08-07T18:59:00.535Z,99.90
2022-08-07T19:02:17.943Z,99.90
2022-08-07T19:04:53.345Z,99.90
2022-08-07T19:07:35.043Z,99.90
2022-08-07T19:10:09.987Z,99.90
2022-08-07T19:12:57.867Z,99.90
2022-08-07T19:16:04.274Z,99.90
2022-08-07T19:18:34.712Z,99.90
2022-08-07T19:21:51.176Z,99.90
2022-08-07T19:24:06.274Z,99.90
2022-08-07T19:27:02.038Z,99.90
2022-08-07T19:31:03.861Z,99.90
2022-08-07T19:32:42.277Z,99.90
2022-08-07T19:35:18.138Z,99.90
2022-08-07T19:37:57.048Z,99.90
2022-08-07T19:40:34.783Z,99.90
2022-08-07T19:43:21.851Z,99.90
2022-08-07T19:46:07.923Z,99.90
2022-08-07T19:48:44.719Z,99.90
2022-08-07T19:51:52.567Z,99.90
2022-08-07T19:54:35.068Z,99.90
2022-08-07T19:57:59.946Z,99.90
2022-08-07T19:59:59.364Z,99.90
2022-08-07T20:02:31.338Z,99.90
2022-08-07T20:05:03.687Z,99.90
2022-08-07T20:07:47.907Z,99.90
2022-08-07T20:10:37.043Z,99.90
2022-08-07T20:13:23.039Z,99.90
2022-08-07T20:15:54.060Z,99.90
2022-08-07T20:18:33.457Z,99.90
2022-08-07T20:21:14.483Z,99.90
2022-08-07T20:23:54.264Z,99.90
2022-08-07T20:26:32.492Z,99.90
2022-08-07T20:29:46.942Z,99.90
2022-08-07T20:32:02.382Z,99.90
2022-08-07T20:34:50.077Z,99.90
2022-08-07T20:37:25.795Z,99.90
2022-08-07T20:40:03.847Z,99.90
2022-08-07T20:42:34.533Z,99.90
2022-08-07T20:45:32.571Z,99.90
2022-08-07T20:47:58.272Z,99.90
2022-08-07T20:50:29.154Z,99.90
2022-08-07T20:53:00.698Z,99.90
2022-08-07T20:55:32.025Z,99.90
2022-08-07T20:58:12.011Z,99.90
2022-08-07T21:00:57.757Z,99.90
2022-08-07T21:03:28.521Z,99.90
2022-08-07T21:06:03.688Z,99.90
2022-08-07T21:09:00.994Z,99.90
2022-08-07T21:11:46.199Z,99.90
2022-08-07T21:14:32.941Z,99.90
2022-08-07T21:18:03.694Z,99.90
2022-08-07T21:20:05.026Z,99.90
2022-08-07T21:22:35.759Z,99.90
2022-08-07T21:25:13.381Z,99.90
2022-08-07T21:28:02.303Z,99.90
2022-08-07T21:30:43.120Z,99.90
2022-08-07T21:33:21.279Z,99.90
2022-08-07T21:36:06.680Z,99.90
2022-08-07T21:38:50.335Z,99.90
2022-08-07T21:41:28.055Z,99.90
2022-08-07T21:44:14.559Z,99.90
2022-08-07T21:47:01.033Z,99.90
2022-08-07T21:50:00.895Z,99.90
2022-08-07T21:52:33.446Z,99.90
2022-08-07T21:55:10.949Z,99.90
2022-08-07T21:57:52.884Z,99.90
2022-08-07T22:00:25.167Z,99.90
2022-08-07T22:03:03.599Z,99.90
2022-08-07T22:05:45.473Z,99.90
2022-08-07T22:08:18.548Z,99.90
2022-08-07T22:10:50.588Z,99.90
2022-08-07T22:13:24.436Z,99.90
2022-08-07T22:16:43.461Z,99.90
2022-08-07T22:19:09.362Z,99.90
2022-08-07T22:22:05.386Z,99.90
2022-08-07T22:24:37.110Z,99.90
2022-08-07T22:27:13.001Z,99.90
2022-08-07T22:29:53.261Z,99.90
2022-08-07T22:32:30.172Z,99.90
2022-08-07T22:35:03.062Z,99.90
2022-08-07T22:38:04.640Z,99.90
2022-08-07T22:40:37.003Z,99.90
2022-08-07T22:43:11.090Z,99.90
2022-08-07T22:46:21.584Z,99.90
2022-08-07T22:49:09.687Z,99.90
2022-08-07T22:52:19.656Z,99.90
2022-08-07T22:55:30.614Z,99.90
2022-08-07T22:58:34.202Z,99.90
2022-08-07T23:01:18.958Z,99.90
2022-08-07T23:04:00.264Z,99.90
2022-08-07T23:06:51.711Z,99.90
2022-08-07T23:10:04.159Z,99.90
2022-08-07T23:12:38.671Z,99.90
2022-08-07T23:16:04.354Z,99.90
2022-08-07T23:18:25.832Z,99.90
2022-08-07T23:21:08.387Z,99.90
2022-08-07T23:24:11.879Z,99.90
2022-08-07T23:26:58.119Z,99.90
2022-08-07T23:30:36.240Z,99.90
2022-08-07T23:34:33.814Z,99.90
2022-08-07T23:35:56.671Z,99.90
2022-08-07T23:38:42.873Z,99.90
2022-08-07T23:41:24.501Z,99.90
2022-08-07T23:44:29.467Z,99.90
2022-08-07T23:47:42.441Z,99.90
2022-08-07T23:50:40.515Z,99.90
2022-08-07T23:53:51.477Z,99.90
2022-08-07T23:56:21.725Z,99.90
2022-08-07T23:58:59.231Z,99.90
